Time;durP1;ratioP1;P1;durP2;ratioP2;P2;SDS_P1;SDS_P2;PMS_P1;PMS_P2;Temp;Humidity;BMP_temperature;BMP_pressure;BME280_temperature;BME280_humidity;BME280_pressure;Samples;Min_cycle;Max_cycle;Signal;HPM_P1;HPM_P2
2022/03/20 00:00:26;;;;;;;21.48;16.23;;;;;;;3.83;100.00;161568.22;5071463;28;20020;-61
2022/03/20 00:02:53;;;;;;;22.60;15.20;;;;;;;3.71;100.00;161537.31;5070046;28;20060;-61
2022/03/20 00:05:18;;;;;;;25.20;16.98;;;;;;;3.63;100.00;161517.13;5053361;28;20096;-61
2022/03/20 00:07:46;;;;;;;49.45;19.38;;;;;;;3.59;100.00;161507.72;5061508;28;20567;-61
2022/03/20 00:10:12;;;;;;;27.33;17.83;;;;;;;3.59;100.00;161506.41;5053907;28;20580;-61
2022/03/20 00:12:38;;;;;;;21.50;15.60;;;;;;;3.60;100.00;161510.44;5051193;28;20055;-61
2022/03/20 00:15:04;;;;;;;28.80;17.38;;;;;;;3.65;100.00;161522.53;5047204;28;20018;-61
2022/03/20 00:17:30;;;;;;;22.50;17.05;;;;;;;3.58;100.00;161503.72;5038015;28;20508;-61
2022/03/20 00:19:56;;;;;;;24.20;15.57;;;;;;;3.68;100.00;161530.59;5050959;28;20108;-61
2022/03/20 00:22:22;;;;;;;19.48;15.57;;;;;;;3.63;100.00;161517.13;5068653;28;20459;-61
2022/03/20 00:24:47;;;;;;;23.17;15.45;;;;;;;3.57;100.00;161501.03;5071159;28;20187;-61
2022/03/20 00:27:14;;;;;;;19.75;16.65;;;;;;;3.57;100.00;161502.41;5069532;28;20060;-60
2022/03/20 00:29:40;;;;;;;24.65;15.82;;;;;;;3.63;100.00;161517.13;5046419;28;20025;-58
2022/03/20 00:32:07;;;;;;;19.25;12.07;;;;;;;3.66;100.00;161525.22;5046436;28;20052;-60
2022/03/20 00:34:33;;;;;;;17.65;13.18;;;;;;;3.61;100.00;161513.13;5050816;28;20515;-60
2022/03/20 00:36:58;;;;;;;22.10;13.60;;;;;;;3.59;100.00;161506.41;5068887;28;20397;-61
2022/03/20 00:39:24;;;;;;;16.75;12.20;;;;;;;3.55;100.00;161497.00;5071084;28;20031;-61
2022/03/20 00:41:49;;;;;;;22.60;12.88;;;;;;;3.56;100.00;161498.34;5069570;28;20125;-61
2022/03/20 00:44:14;;;;;;;15.98;10.35;;;;;;;3.57;100.00;161501.03;5061401;28;20036;-61
2022/03/20 00:46:40;;;;;;;18.88;12.18;;;;;;;3.55;100.00;161495.63;5069844;28;20048;-61
2022/03/20 00:49:05;;;;;;;15.35;9.63;;;;;;;3.51;100.00;161484.91;5064067;28;20039;-62
2022/03/20 00:51:31;;;;;;;18.73;8.60;;;;;;;3.47;100.00;161476.84;5049736;28;20053;-61
2022/03/20 00:53:56;;;;;;;14.65;8.75;;;;;;;3.41;100.00;161460.72;5050858;28;20040;-61
2022/03/20 00:56:22;;;;;;;17.98;9.07;;;;;;;3.44;100.00;161467.44;5057556;28;20041;-61
2022/03/20 00:58:47;;;;;;;12.10;8.27;;;;;;;3.45;100.00;161470.13;5051149;28;20025;-61
2022/03/20 01:01:14;;;;;;;14.57;8.90;;;;;;;3.44;100.00;161468.81;5051450;28;20075;-61
2022/03/20 01:03:40;;;;;;;21.65;11.68;;;;;;;3.45;100.00;161471.50;5070342;28;20524;-61
2022/03/20 01:06:06;;;;;;;35.80;18.05;;;;;;;3.44;100.00;161468.81;5031113;28;20472;-61
2022/03/20 01:08:32;;;;;;;21.85;11.35;;;;;;;3.43;100.00;161466.09;5051237;28;20401;-61
2022/03/20 01:10:57;;;;;;;10.55;8.13;;;;;;;3.38;100.00;161452.69;5070732;28;20036;-61
2022/03/20 01:13:23;;;;;;;21.83;12.70;;;;;;;3.37;100.00;161450.00;5069168;28;20052;-61
2022/03/20 01:15:49;;;;;;;21.73;9.98;;;;;;;3.33;100.00;161439.22;5070675;28;20028;-61
2022/03/20 01:18:14;;;;;;;17.48;9.18;;;;;;;3.31;100.00;161433.88;5069068;28;20036;-61
2022/03/20 01:20:40;;;;;;;22.80;12.20;;;;;;;3.27;100.00;161424.47;5070469;28;20472;-61
2022/03/20 01:23:05;;;;;;;16.20;9.32;;;;;;;3.32;100.00;161437.91;5069189;28;20155;-61
2022/03/20 01:25:30;;;;;;;10.60;8.02;;;;;;;3.31;100.00;161435.19;5069979;28;20031;-61
2022/03/20 01:27:56;;;;;;;15.98;10.07;;;;;;;3.25;100.00;161419.09;5069487;28;20090;-61
2022/03/20 01:30:21;;;;;;;19.00;10.80;;;;;;;3.26;100.00;161420.41;5069793;28;20074;-61
2022/03/20 01:32:47;;;;;;;13.20;9.32;;;;;;;3.24;100.00;161415.09;5067388;28;20040;-61
2022/03/20 01:35:12;;;;;;;16.92;9.82;;;;;;;3.17;100.00;161398.91;5069756;28;20071;-61
2022/03/20 01:37:41;;;;;;;18.17;11.77;;;;;;;3.13;100.00;161386.81;5069193;28;20539;-61
2022/03/20 01:40:07;;;;;;;20.50;10.85;;;;;;;3.11;100.00;161382.81;5069609;28;20407;-59
2022/03/20 01:42:33;;;;;;;41.63;27.98;;;;;;;3.08;100.00;161374.78;5069083;28;20507;-60
2022/03/20 01:44:58;;;;;;;22.40;11.00;;;;;;;3.05;100.00;161366.72;5073925;28;20039;-60
2022/03/20 01:47:23;;;;;;;18.35;10.77;;;;;;;3.03;100.00;161361.31;5072420;28;20499;-60
2022/03/20 01:49:49;;;;;;;19.20;11.63;;;;;;;3.05;100.00;161365.38;5074109;28;20391;-60
2022/03/20 01:52:23;;;;;;;27.13;16.90;;;;;;;3.02;100.00;161358.63;5072170;28;20052;-60
2022/03/20 01:54:49;;;;;;;35.20;22.27;;;;;;;2.96;100.00;161342.50;5073362;28;20554;-59
2022/03/20 01:57:21;;;;;;;23.00;15.18;;;;;;;2.94;100.00;161337.19;5072814;28;20495;-60
2022/03/20 01:59:48;;;;;;;46.47;27.27;;;;;;;2.97;100.00;161345.22;5074250;28;20021;-60
2022/03/20 02:02:14;;;;;;;18.80;11.07;;;;;;;2.97;100.00;161346.59;5072095;28;20056;-59
2022/03/20 02:04:40;;;;;;;17.67;11.38;;;;;;;2.91;100.00;161329.09;5073593;28;20024;-59
2022/03/20 02:07:06;;;;;;;16.50;11.50;;;;;;;2.90;100.00;161326.41;5072675;28;20046;-59
2022/03/20 02:09:34;;;;;;;14.80;10.77;;;;;;;2.84;100.00;161313.00;5073750;28;20025;-59
2022/03/20 02:11:59;;;;;;;19.92;11.30;;;;;;;2.83;100.00;161310.31;5072195;28;20083;-60
2022/03/20 02:14:26;;;;;;;19.23;13.25;;;;;;;2.87;100.00;161318.38;5073483;28;20127;-59
2022/03/20 02:16:52;;;;;;;15.55;12.80;;;;;;;2.85;100.00;161315.69;5072039;28;20147;-59
2022/03/20 02:19:18;;;;;;;16.02;12.07;;;;;;;2.79;100.00;161299.53;5073454;28;20036;-59
2022/03/20 02:21:46;;;;;;;18.88;14.25;;;;;;;2.75;100.00;161288.81;5072486;28;20557;-59
2022/03/20 02:24:36;;;;;;;28.70;20.80;;;;;;;2.77;100.00;161294.19;5072955;28;20035;-59
2022/03/20 02:27:21;;;;;;;16.85;13.02;;;;;;;2.77;100.00;161294.19;5072324;28;20040;-59
2022/03/20 02:29:56;;;;;;;19.77;15.18;;;;;;;2.76;100.00;161291.50;5073549;28;20558;-59
2022/03/20 02:32:29;;;;;;;19.45;15.35;;;;;;;2.74;100.00;161284.78;5071675;28;20049;-59
2022/03/20 02:34:56;;;;;;;22.67;14.20;;;;;;;2.78;100.00;161296.88;5073360;28;20021;-59
2022/03/20 02:37:24;;;;;;;15.50;13.70;;;;;;;2.73;100.00;161283.44;5071560;28;20103;-59
2022/03/20 02:39:53;;;;;;;24.35;15.02;;;;;;;2.75;100.00;161287.50;5073325;28;20031;-59
2022/03/20 02:42:19;;;;;;;35.67;20.75;;;;;;;2.75;100.00;161288.81;5071602;28;20067;-59
2022/03/20 02:45:03;;;;;;;28.35;14.55;;;;;;;2.74;100.00;161286.13;5072874;28;20467;-59
2022/03/20 02:47:34;;;;;;;23.15;14.55;;;;;;;2.69;100.00;161272.72;5071657;28;20412;-59
2022/03/20 02:50:17;;;;;;;22.40;16.30;;;;;;;2.65;100.00;161263.31;5073504;28;20024;-61
2022/03/20 02:52:43;;;;;;;29.23;19.75;;;;;;;2.60;100.00;161248.53;5071544;28;20456;-61
2022/03/20 02:55:09;;;;;;;20.92;16.15;;;;;;;2.60;100.00;161248.53;5071968;28;20032;-61
2022/03/20 02:57:35;;;;;;;22.20;17.85;;;;;;;2.58;100.00;161243.16;5071792;28;20124;-61
2022/03/20 03:00:04;;;;;;;27.92;18.85;;;;;;;2.54;100.00;161235.13;5072887;28;20503;-60
2022/03/20 03:02:37;;;;;;;29.60;15.82;;;;;;;2.50;100.00;161224.34;5071045;28;20051;-60
2022/03/20 03:05:03;;;;;;;28.92;20.02;;;;;;;2.50;100.00;161223.03;5072510;28;20115;-60
2022/03/20 03:07:30;;;;;;;30.98;24.48;;;;;;;2.49;100.00;161221.72;5071185;28;20530;-60
2022/03/20 03:12:39;;;;;;;22.33;16.90;;;;;;;2.56;100.00;161237.81;5071147;28;20047;-60
2022/03/20 03:15:20;;;;;;;26.13;17.75;;;;;;;2.57;100.00;161240.50;5072085;28;20028;-61
2022/03/20 03:17:49;;;;;;;22.10;14.93;;;;;;;2.53;100.00;161232.44;5070879;28;20044;-60
2022/03/20 03:20:17;;;;;;;21.05;16.77;;;;;;;2.46;100.00;161212.25;5072358;28;20498;-60
2022/03/20 03:22:42;;;;;;;30.23;20.50;;;;;;;2.46;100.00;161212.25;5071325;28;20105;-61
2022/03/20 03:25:08;;;;;;;30.13;19.60;;;;;;;2.42;100.00;161202.88;5071886;28;20484;-60
2022/03/20 03:27:34;;;;;;;24.27;15.13;;;;;;;2.39;100.00;161194.84;5071084;28;20050;-60
2022/03/20 03:29:59;;;;;;;28.00;16.80;;;;;;;2.33;100.00;161178.75;5072426;28;20490;-60
2022/03/20 03:32:25;;;;;;;26.25;16.02;;;;;;;2.28;100.00;161165.28;5070097;28;20127;-60
2022/03/20 03:37:34;;;;;;;28.52;17.10;;;;;;;2.26;100.00;161159.94;5070900;28;20131;-61
2022/03/20 03:40:02;;;;;;;20.40;15.23;;;;;;;2.29;100.00;161169.34;5071657;28;20021;-59
2022/03/20 03:42:29;;;;;;;23.88;15.93;;;;;;;2.26;100.00;161161.28;5071053;28;20517;-61
2022/03/20 03:44:55;;;;;;;23.08;16.58;;;;;;;2.27;100.00;161162.66;5072137;28;20458;-60
2022/03/20 03:47:21;;;;;;;24.15;16.85;;;;;;;2.25;100.00;161157.25;5070238;28;20032;-61
2022/03/20 03:49:46;;;;;;;30.75;18.10;;;;;;;2.19;100.00;161142.47;5072186;28;20020;-61
2022/03/20 03:52:11;;;;;;;24.13;16.20;;;;;;;2.19;100.00;161143.84;5070090;28;20053;-60
2022/03/20 03:54:37;;;;;;;26.20;16.55;;;;;;;2.22;100.00;161150.56;5070870;28;20031;-60
2022/03/20 03:57:02;;;;;;;24.73;17.83;;;;;;;2.22;100.00;161151.88;5070582;28;20047;-60
2022/03/20 03:59:28;;;;;;;19.98;15.95;;;;;;;2.22;100.00;161151.88;5072271;28;20123;-60
2022/03/20 04:01:54;;;;;;;24.55;15.63;;;;;;;2.22;100.00;161151.88;5070065;28;20466;-61
2022/03/20 04:04:20;;;;;;;32.83;19.95;;;;;;;2.20;100.00;161146.50;5071070;28;20031;-61
2022/03/20 04:06:45;;;;;;;25.67;17.85;;;;;;;2.17;100.00;161138.47;5069769;28;20040;-61
2022/03/20 04:09:11;;;;;;;24.00;16.88;;;;;;;2.14;100.00;161129.06;5071195;28;20028;-61
2022/03/20 04:11:37;;;;;;;24.38;16.05;;;;;;;2.06;100.00;161108.91;5070067;28;20511;-61
2022/03/20 04:14:03;;;;;;;30.65;20.67;;;;;;;2.04;100.00;161103.59;5071554;28;20028;-61
2022/03/20 04:16:28;;;;;;;22.40;16.92;;;;;;;2.01;100.00;161096.84;5069513;28;20044;-61
2022/03/20 04:18:53;;;;;;;34.53;18.70;;;;;;;2.08;100.00;161114.31;5071330;28;20590;-61
2022/03/20 04:21:19;;;;;;;31.20;18.95;;;;;;;2.09;100.00;161117.00;5069917;28;20391;-61
2022/03/20 04:23:49;;;;;;;30.63;17.92;;;;;;;2.04;100.00;161104.91;5071231;28;20016;-61
2022/03/20 04:26:16;;;;;;;24.85;18.50;;;;;;;1.99;100.00;161090.13;5069684;28;20156;-61
2022/03/20 04:28:44;;;;;;;22.35;16.77;;;;;;;2.03;100.00;161102.22;5071578;28;20024;-62
2022/03/20 04:31:10;;;;;;;20.73;15.55;;;;;;;2.01;100.00;161096.84;5069266;28;20399;-61
2022/03/20 04:33:36;;;;;;;24.60;17.52;;;;;;;2.00;100.00;161092.81;5071656;28;20024;-61
2022/03/20 04:36:01;;;;;;;25.17;19.48;;;;;;;2.00;100.00;161092.81;5071478;28;20426;-61
2022/03/20 04:38:27;;;;;;;32.95;19.25;;;;;;;1.97;100.00;161086.13;5068890;28;20569;-61
2022/03/20 04:40:53;;;;;;;23.23;17.15;;;;;;;1.96;100.00;161082.09;5071446;28;20032;-61
2022/03/20 04:43:18;;;;;;;35.53;23.13;;;;;;;2.00;100.00;161092.81;5069744;28;20032;-61
2022/03/20 04:45:44;;;;;;;47.42;27.98;;;;;;;2.10;100.00;161119.69;5070378;28;20032;-61
2022/03/20 04:59:04;;;;;;;23.83;19.58;;;;;;;2.05;100.00;161106.22;5069028;28;20407;-61
2022/03/20 05:01:30;;;;;;;22.77;17.63;;;;;;;2.11;100.00;161122.38;5070713;28;20024;-61
2022/03/20 05:03:55;;;;;;;29.60;19.08;;;;;;;2.14;100.00;161130.41;5069634;28;20523;-62
2022/03/20 05:06:21;;;;;;;25.95;17.77;;;;;;;2.14;100.00;161130.41;5070896;28;20031;-61
2022/03/20 05:08:46;;;;;;;27.27;18.17;;;;;;;2.16;100.00;161135.78;5069005;28;20059;-61
2022/03/20 05:13:55;;;;;;;30.27;20.90;;;;;;;2.18;100.00;161141.16;5069031;28;20122;-61
2022/03/20 05:16:20;;;;;;;27.83;19.33;;;;;;;2.16;100.00;161135.78;5070468;28;20785;-63
2022/03/20 05:18:46;;;;;;;30.00;18.73;;;;;;;2.15;100.00;161133.09;5073325;28;20036;-61
2022/03/20 05:21:11;;;;;;;28.02;19.30;;;;;;;2.13;100.00;161126.38;5074544;28;20029;-61
2022/03/20 05:23:37;;;;;;;23.33;18.60;;;;;;;2.06;100.00;161110.28;5073209;28;20151;-61
2022/03/20 05:26:03;;;;;;;28.08;18.83;;;;;;;2.08;100.00;161112.97;5074419;28;20028;-62
2022/03/20 05:28:28;;;;;;;30.90;19.85;;;;;;;2.03;100.00;161102.22;5053510;28;20500;-61
2022/03/20 05:30:54;;;;;;;27.88;21.88;;;;;;;1.98;100.00;161088.81;5054566;28;20057;-61
2022/03/20 05:33:20;;;;;;;28.98;20.45;;;;;;;1.97;100.00;161084.81;5061554;28;20041;-60
2022/03/20 05:35:45;;;;;;;28.60;18.77;;;;;;;1.96;100.00;161082.09;5074334;28;20028;-60
2022/03/20 05:38:12;;;;;;;32.88;21.17;;;;;;;2.00;100.00;161092.81;5072535;28;20045;-60
2022/03/20 05:40:38;;;;;;;25.20;16.75;;;;;;;2.06;100.00;161108.91;5075030;28;20064;-60
2022/03/20 05:43:03;;;;;;;28.88;20.55;;;;;;;2.07;100.00;161111.59;5073099;28;20495;-60
2022/03/20 05:45:28;;;;;;;26.55;20.95;;;;;;;2.13;100.00;161127.72;5073903;28;20017;-60
2022/03/20 05:47:54;;;;;;;31.50;20.38;;;;;;;2.14;100.00;161130.41;5073198;28;20036;-60
2022/03/20 05:50:19;;;;;;;27.67;20.50;;;;;;;2.15;100.00;161133.09;5073749;28;20024;-60
2022/03/20 05:52:45;;;;;;;31.00;19.75;;;;;;;2.20;100.00;161145.19;5072187;28;20504;-60
2022/03/20 05:55:10;;;;;;;27.90;18.73;;;;;;;2.19;100.00;161143.84;5073646;28;20024;-60
2022/03/20 06:00:25;;;;;;;26.88;21.20;;;;;;;2.27;100.00;161162.66;5073783;28;20059;-60
2022/03/20 06:02:50;;;;;;;30.58;20.73;;;;;;;2.28;100.00;161165.28;5072642;28;20496;-60
2022/03/20 06:05:16;;;;;;;30.35;22.05;;;;;;;2.28;100.00;161165.28;5073491;28;20442;-59
2022/03/20 06:07:43;;;;;;;29.10;20.15;;;;;;;2.28;100.00;161165.28;5071514;28;20040;-59
2022/03/20 06:10:13;;;;;;;32.63;20.08;;;;;;;2.29;100.00;161167.97;5073437;28;20039;-59
2022/03/20 06:12:38;;;;;;;27.70;23.42;;;;;;;2.25;100.00;161157.25;5072582;28;20041;-58
2022/03/20 06:15:05;;;;;;;29.02;19.42;;;;;;;2.33;100.00;161178.75;5072780;28;20037;-59
2022/03/20 06:17:31;;;;;;;25.98;20.27;;;;;;;2.37;100.00;161189.47;5072373;28;20127;-58
2022/03/20 06:19:58;;;;;;;32.38;21.25;;;;;;;2.38;100.00;161192.16;5072351;28;20062;-58
2022/03/20 06:22:23;;;;;;;31.70;21.58;;;;;;;2.36;100.00;161186.75;5070095;28;20579;-58
2022/03/20 06:24:49;;;;;;;27.52;20.17;;;;;;;2.36;100.00;161186.75;5073660;28;20020;-58
2022/03/20 06:27:14;;;;;;;35.10;25.60;;;;;;;2.25;100.00;161157.25;5071562;28;20040;-58
2022/03/20 06:29:40;;;;;;;29.52;18.52;;;;;;;2.44;100.00;161206.94;5070163;28;20427;-58
2022/03/20 06:32:06;;;;;;;30.98;20.75;;;;;;;2.43;100.00;161205.56;5070673;28;20040;-59
2022/03/20 06:34:33;;;;;;;32.15;22.65;;;;;;;2.50;100.00;161224.34;5071148;28;20032;-58
2022/03/20 06:36:59;;;;;;;40.63;21.10;;;;;;;2.51;100.00;161227.03;5070575;28;20060;-59
2022/03/20 06:39:24;;;;;;;37.45;23.80;;;;;;;2.51;100.00;161227.03;5072570;28;20031;-59
2022/03/20 06:41:50;;;;;;;30.98;19.60;;;;;;;2.45;100.00;161210.94;5070763;28;20046;-59
2022/03/20 06:44:15;;;;;;;32.25;22.92;;;;;;;2.41;100.00;161198.84;5071182;28;20032;-58
2022/03/20 06:46:41;;;;;;;35.08;22.95;;;;;;;2.38;100.00;161192.16;5070639;28;20048;-59
2022/03/20 06:49:08;;;;;;;31.45;21.95;;;;;;;2.38;100.00;161192.16;5071666;28;20020;-59
2022/03/20 06:51:33;;;;;;;33.45;20.95;;;;;;;2.38;100.00;161192.16;5070162;28;20040;-59
2022/03/20 06:53:59;;;;;;;32.00;21.75;;;;;;;2.37;100.00;161189.47;5072351;28;20059;-59
2022/03/20 06:56:25;;;;;;;28.15;22.83;;;;;;;2.42;100.00;161202.88;5071213;28;20033;-58
2022/03/20 06:58:50;;;;;;;30.33;21.83;;;;;;;2.54;100.00;161235.13;5071516;28;20067;-59
2022/03/20 07:01:15;;;;;;;26.70;21.63;;;;;;;2.59;100.00;161245.84;5070785;28;20495;-59
2022/03/20 07:03:41;;;;;;;31.45;21.17;;;;;;;2.70;100.00;161275.41;5061557;28;20036;-59
2022/03/20 07:06:06;;;;;;;34.50;23.50;;;;;;;2.82;100.00;161307.59;5067779;28;20032;-58
2022/03/20 07:08:31;;;;;;;34.92;22.77;;;;;;;2.88;100.00;161322.41;5071598;28;20036;-58
2022/03/20 07:10:57;;;;;;;33.05;22.73;;;;;;;2.98;100.00;161347.91;5072680;28;20385;-58
2022/03/20 07:16:07;;;;;;;32.65;23.85;;;;;;;3.10;100.00;161380.13;5050705;28;20549;-58
2022/03/20 07:18:34;;;;;;;31.67;19.17;;;;;;;3.21;100.00;161407.00;5064990;28;20451;-58
2022/03/20 07:21:00;;;;;;;36.05;24.00;;;;;;;3.23;100.00;161412.38;5050986;28;20029;-58
2022/03/20 07:23:26;;;;;;;28.23;20.35;;;;;;;3.30;100.00;161431.19;5064012;28;20214;-58
2022/03/20 07:31:19;;;;;;;35.15;20.92;;;;;;;3.66;100.00;161525.22;5070215;28;20047;-58
2022/03/20 07:33:44;;;;;;;32.50;23.25;;;;;;;3.69;100.00;161531.94;5071770;28;20590;-58
2022/03/20 07:36:10;;;;;;;29.50;22.42;;;;;;;3.72;100.00;161541.34;5069322;28;20028;-58
2022/03/20 07:38:36;;;;;;;31.85;25.05;;;;;;;3.79;100.00;161560.16;5065863;28;20020;-58
2022/03/20 07:41:02;;;;;;;31.30;22.42;;;;;;;3.89;100.00;161584.34;5069605;28;20415;-59
2022/03/20 07:43:27;;;;;;;32.88;23.80;;;;;;;4.01;100.00;161616.59;5068097;28;20464;-58
2022/03/20 07:45:53;;;;;;;45.30;24.42;;;;;;;4.18;100.00;161659.59;5058474;28;20083;-58
2022/03/20 07:48:23;;;;;;;30.67;22.77;;;;;;;4.35;100.00;161705.31;5050329;28;20033;-56
2022/03/20 07:50:50;;;;;;;30.05;24.17;;;;;;;4.61;100.00;161772.50;5054239;28;20017;-57
2022/03/20 07:53:16;;;;;;;33.13;21.65;;;;;;;4.86;100.00;161837.06;5049765;28;20033;-56
2022/03/20 07:55:42;;;;;;;28.30;22.10;;;;;;;5.30;100.00;161952.72;5066148;28;20670;-57
2022/03/20 07:58:07;;;;;;;29.45;22.77;;;;;;;6.05;100.00;162146.53;5065745;28;20044;-57
2022/03/20 08:00:33;;;;;;;29.88;22.92;;;;;;;6.26;100.00;162203.06;5068389;28;20399;-57
2022/03/20 08:02:59;;;;;;;33.72;21.27;;;;;;;6.69;100.00;162313.44;5068916;28;20048;-56
2022/03/20 08:05:25;;;;;;;28.10;22.58;;;;;;;6.99;100.00;162394.22;5050252;28;20029;-57
2022/03/20 08:07:50;;;;;;;31.10;22.65;;;;;;;7.46;100.00;162515.44;5050634;28;20056;-56
2022/03/20 08:10:16;;;;;;;29.92;22.23;;;;;;;7.44;100.00;162511.44;5051239;28;20037;-57
2022/03/20 08:12:41;;;;;;;28.65;21.70;;;;;;;7.26;100.00;162464.22;5065667;28;20040;-56
2022/03/20 08:15:07;;;;;;;28.40;22.35;;;;;;;7.38;100.00;162495.22;5070926;28;20016;-56
2022/03/20 08:17:42;;;;;;;26.02;20.08;;;;;;;7.89;100.00;162628.63;5057673;28;20072;-56
2022/03/20 08:20:08;;;;;;;27.00;21.55;;;;;;;8.06;100.00;162671.75;5051901;28;20036;-56
2022/03/20 08:22:34;;;;;;;27.77;22.10;;;;;;;8.25;100.00;162722.94;5049257;28;20037;-57
2022/03/20 08:24:59;;;;;;;30.10;24.92;;;;;;;7.90;100.00;162631.31;5052916;28;20021;-56
2022/03/20 08:27:25;;;;;;;29.15;22.55;;;;;;;8.29;100.00;162732.38;5056828;28;20546;-56
2022/03/20 08:29:50;;;;;;;28.70;21.38;;;;;;;8.68;100.00;162833.50;5060944;28;20025;-56
2022/03/20 08:32:15;;;;;;;28.73;21.88;;;;;;;8.67;100.00;162830.84;5040680;28;20506;-56
2022/03/20 08:34:41;;;;;;;32.38;23.48;;;;;;;8.65;98.49;162825.44;5052530;28;20368;-56
2022/03/20 08:37:06;;;;;;;36.97;23.95;;;;;;;8.62;97.94;162817.34;5058336;28;20420;-56
2022/03/20 08:39:31;;;;;;;33.40;21.17;;;;;;;8.98;97.55;162911.72;5070650;28;20028;-56
2022/03/20 08:41:57;;;;;;;31.90;23.20;;;;;;;8.73;92.61;162847.03;5067244;28;20036;-56
2022/03/20 08:44:26;;;;;;;30.30;20.73;;;;;;;8.89;96.84;162888.81;5070406;28;20043;-56
2022/03/20 08:46:51;;;;;;;;;;;;;;;9.02;93.35;162922.53;5069493;28;20044;-56
2022/03/20 08:49:16;;;;;;;33.03;22.13;;;;;;;9.17;90.71;162961.59;5068547;28;19908;-56
2022/03/20 08:51:43;;;;;;;28.23;21.67;;;;;;;8.97;90.91;162909.06;5068628;28;20049;-56
2022/03/20 08:54:09;;;;;;;32.03;22.35;;;;;;;8.80;91.32;162865.91;5062453;28;20016;-56
2022/03/20 08:56:34;;;;;;;34.08;21.85;;;;;;;8.92;90.87;162895.53;5051811;28;20041;-56
2022/03/20 08:58:59;;;;;;;28.55;21.88;;;;;;;9.32;91.99;163000.75;5050946;28;20455;-56
2022/03/20 09:01:25;;;;;;;35.70;21.85;;;;;;;9.24;88.07;162979.16;5050188;28;20041;-57
2022/03/20 09:03:51;;;;;;;31.20;23.63;;;;;;;9.25;87.88;162981.84;5061133;28;20032;-56
2022/03/20 09:06:20;;;;;;;33.33;24.02;;;;;;;8.85;88.43;162878.03;5048389;28;20087;-56
2022/03/20 09:08:46;;;;;;;29.77;22.75;;;;;;;8.59;88.99;162809.28;5067168;28;20146;-57
2022/03/20 09:11:12;;;;;;;33.75;23.48;;;;;;;8.79;89.00;162863.19;5068838;28;20055;-56
2022/03/20 09:13:37;;;;;;;33.15;22.48;;;;;;;8.61;90.77;162814.63;5056945;28;20417;-57
2022/03/20 09:18:59;;;;;;;29.88;22.92;;;;;;;8.69;90.02;162836.22;5050567;28;20082;-57
2022/03/20 09:21:28;;;;;;;33.90;26.73;;;;;;;8.83;91.24;162873.94;5049217;28;20040;-57
2022/03/20 09:23:54;;;;;;;39.13;25.23;;;;;;;8.92;87.28;162895.53;5049909;28;20380;-57
2022/03/20 09:26:19;;;;;;;34.92;25.85;;;;;;;8.98;92.29;162911.72;5054500;28;20031;-57
2022/03/20 09:28:45;;;;;;;30.55;23.88;;;;;;;8.64;88.06;162822.75;5068748;28;20045;-57
2022/03/20 09:31:10;;;;;;;30.48;24.60;;;;;;;8.30;87.90;162735.06;5061982;28;20021;-57
2022/03/20 09:33:36;;;;;;;33.33;23.83;;;;;;;8.12;88.97;162687.91;5058106;28;20783;-56
2022/03/20 09:36:01;;;;;;;31.67;24.25;;;;;;;7.84;92.81;162615.16;5061664;28;20024;-55
2022/03/20 09:38:26;;;;;;;30.85;24.67;;;;;;;7.71;92.43;162581.47;5069198;28;20675;-57
2022/03/20 09:40:52;;;;;;;32.28;23.55;;;;;;;7.52;94.11;162531.59;5069408;28;20474;-57
2022/03/20 09:43:17;;;;;;;38.78;25.48;;;;;;;7.51;93.44;162528.91;5065216;28;20032;-57
2022/03/20 09:45:43;;;;;;;30.08;23.90;;;;;;;7.59;96.74;162549.13;5054828;28;20128;-57
2022/03/20 09:48:08;;;;;;;33.67;24.73;;;;;;;7.79;98.31;162601.66;5052187;28;20041;-57
2022/03/20 09:50:34;;;;;;;35.47;25.65;;;;;;;7.85;95.49;162616.47;5050350;28;20032;-57
2022/03/20 09:53:00;;;;;;;33.47;23.90;;;;;;;7.81;95.55;162607.06;5064805;28;20033;-57
2022/03/20 09:55:26;;;;;;;37.30;26.48;;;;;;;7.98;98.47;162651.50;5069523;28;20032;-57
2022/03/20 09:57:56;;;;;;;39.38;26.67;;;;;;;8.30;98.69;162733.75;5061312;28;20036;-57
2022/03/20 10:00:22;;;;;;;32.38;24.77;;;;;;;8.56;97.47;162802.53;5069386;28;20046;-57
2022/03/20 10:02:47;;;;;;;38.05;25.83;;;;;;;8.65;95.25;162825.44;5065572;28;20411;-59
2022/03/20 10:05:19;;;;;;;33.53;25.25;;;;;;;8.80;94.04;162865.91;5072127;28;20033;-57
2022/03/20 10:07:44;;;;;;;29.00;23.60;;;;;;;9.07;93.78;162936.00;5072426;28;20495;-57
2022/03/20 10:10:19;;;;;;;35.42;25.65;;;;;;;9.31;93.29;162998.03;5073296;28;20078;-57
2022/03/20 10:12:52;;;;;;;36.88;27.83;;;;;;;9.74;93.27;163111.34;5071806;28;20563;-57
2022/03/20 10:15:36;;;;;;;32.80;25.70;;;;;;;9.71;89.32;163103.25;5073590;28;20383;-57
2022/03/20 10:18:18;;;;;;;38.13;26.45;;;;;;;9.54;90.13;163058.72;5071566;28;20040;-58
2022/03/20 10:20:46;;;;;;;28.50;23.17;;;;;;;9.58;90.96;163068.16;5073911;28;20032;-57
2022/03/20 10:23:41;;;;;;;34.47;27.00;;;;;;;9.83;91.76;163135.63;5071950;28;20060;-57
2022/03/20 10:26:27;;;;;;;34.60;26.70;;;;;;;9.80;91.98;163127.50;5071492;28;20052;-57
2022/03/20 10:28:52;;;;;;;35.35;28.08;;;;;;;9.74;89.94;163110.00;5073489;28;20399;-57
2022/03/20 10:31:22;;;;;;;37.72;28.88;;;;;;;9.82;91.27;163131.59;5070288;28;20012;-57
2022/03/20 10:34:03;;;;;;;32.95;25.85;;;;;;;9.67;92.17;163092.44;5053048;28;20028;-57
2022/03/20 10:36:28;;;;;;;35.97;25.15;;;;;;;9.53;89.54;163057.38;5051886;28;20535;-57
2022/03/20 10:38:53;;;;;;;36.38;25.60;;;;;;;9.35;89.45;163008.81;5053315;28;20025;-57
2022/03/20 10:41:26;;;;;;;36.45;26.60;;;;;;;9.46;92.91;163038.50;5052457;28;20037;-57
2022/03/20 10:43:56;;;;;;;32.55;25.63;;;;;;;9.59;89.43;163072.25;5053583;28;20029;-57
2022/03/20 10:46:24;;;;;;;40.30;28.70;;;;;;;9.63;88.25;163083.00;5052837;28;20083;-57
2022/03/20 10:48:54;;;;;;;35.30;28.77;;;;;;;9.71;90.50;163103.25;5053183;28;20032;-57
2022/03/20 10:51:27;;;;;;;34.45;26.95;;;;;;;9.55;87.81;163060.09;5051592;28;20033;-57
2022/03/20 10:53:55;;;;;;;34.15;28.00;;;;;;;9.21;90.17;162973.75;5061193;28;20072;-57
2022/03/20 10:56:21;;;;;;;33.25;26.33;;;;;;;9.29;91.24;162992.63;5071057;28;20487;-57
2022/03/20 10:58:46;;;;;;;36.85;26.98;;;;;;;9.37;91.21;163014.22;5056246;28;20049;-57
2022/03/20 11:01:12;;;;;;;33.05;25.20;;;;;;;9.70;91.79;163100.56;5051336;28;20028;-57
2022/03/20 11:03:39;;;;;;;38.13;27.75;;;;;;;10.12;90.50;163211.19;5052453;28;20046;-57
2022/03/20 11:06:06;;;;;;;31.40;24.52;;;;;;;10.62;91.81;163340.78;5051303;28;20101;-57
2022/03/20 11:08:31;;;;;;;39.45;26.52;;;;;;;10.62;87.03;163340.78;5052954;28;20044;-57
2022/03/20 11:10:59;;;;;;;33.28;27.08;;;;;;;10.85;89.68;163401.56;5052383;28;20384;-57
2022/03/20 11:13:26;;;;;;;31.42;23.73;;;;;;;10.52;86.66;163313.81;5057042;28;20087;-57
2022/03/20 11:15:53;;;;;;;33.67;25.40;;;;;;;10.40;90.40;163284.09;5062651;28;20031;-57
2022/03/20 11:18:21;;;;;;;37.78;29.05;;;;;;;10.13;87.50;163213.88;5050446;28;20066;-57
2022/03/20 11:20:50;;;;;;;31.40;26.67;;;;;;;9.79;87.43;163124.81;5052596;28;20142;-57
2022/03/20 11:23:17;;;;;;;37.33;27.52;;;;;;;9.57;87.40;163065.50;5052897;28;20114;-57
2022/03/20 11:25:45;;;;;;;37.47;29.45;;;;;;;9.53;91.40;163057.38;5053545;28;20029;-57
2022/03/20 11:28:12;;;;;;;36.55;28.77;;;;;;;9.52;92.37;163054.69;5063295;28;20048;-56
2022/03/20 11:30:38;;;;;;;36.40;28.05;;;;;;;9.58;93.65;163068.16;5062266;28;20025;-56
2022/03/20 11:33:06;;;;;;;38.10;27.90;;;;;;;9.50;89.08;163049.28;5052361;28;20049;-57
2022/03/20 11:35:35;;;;;;;35.72;27.13;;;;;;;9.43;89.42;163030.38;5048363;28;20490;-57
2022/03/20 11:38:12;;;;;;;36.13;28.38;;;;;;;9.35;90.50;163010.19;5050220;28;20041;-56
2022/03/20 11:40:41;;;;;;;33.45;27.08;;;;;;;9.31;91.15;162998.03;5062688;28;20467;-56
2022/03/20 11:43:19;;;;;;;37.13;25.98;;;;;;;9.27;93.54;162987.28;5053725;28;20037;-56